createdAt,value
2023-05-19T00:00:32.309Z,21.7600
2023-05-19T00:01:34.281Z,21.7500
2023-05-19T00:02:36.564Z,21.7600
2023-05-19T00:03:38.862Z,21.7600
2023-05-19T00:04:41.048Z,21.7600
2023-05-19T00:05:43.420Z,21.7600
2023-05-19T00:06:43.406Z,21.7600
2023-05-19T00:07:45.633Z,21.7600
2023-05-19T00:08:47.877Z,21.7600
2023-05-19T00:09:50.112Z,21.7600
2023-05-19T00:10:52.447Z,21.7500
2023-05-19T00:11:54.581Z,21.7600
2023-05-19T00:12:56.875Z,21.7500
2023-05-19T00:13:59.101Z,21.7500
2023-05-19T00:15:01.374Z,21.7500
2023-05-19T00:16:03.767Z,21.7500
2023-05-19T00:17:03.755Z,21.7500
2023-05-19T00:18:05.978Z,21.7500
2023-05-19T00:19:08.241Z,21.7600
2023-05-19T00:20:10.457Z,21.7500
2023-05-19T00:21:12.779Z,21.7500
2023-05-19T00:22:15.044Z,21.7600
2023-05-19T00:23:17.332Z,21.7600
2023-05-19T00:24:19.622Z,21.7600
2023-05-19T00:25:19.762Z,21.7600
2023-05-19T00:26:22.064Z,21.7600
2023-05-19T00:27:24.305Z,21.7600
2023-05-19T00:28:26.606Z,21.7500
2023-05-19T00:29:28.828Z,21.7600
2023-05-19T00:30:31.295Z,21.7600
2023-05-19T00:31:33.436Z,21.7700
2023-05-19T00:32:35.690Z,21.7600
2023-05-19T00:33:35.769Z,21.7600
2023-05-19T00:34:38.062Z,21.7700
2023-05-19T00:35:40.303Z,21.7700
2023-05-19T00:36:42.727Z,21.7700
2023-05-19T00:37:44.818Z,21.7700
2023-05-19T00:38:47.099Z,21.7700
2023-05-19T00:39:49.363Z,21.7600
2023-05-19T00:40:51.651Z,21.7600
2023-05-19T00:41:51.802Z,21.7600
2023-05-19T00:42:54.071Z,21.7500
2023-05-19T00:43:56.432Z,21.7500
2023-05-19T00:44:58.611Z,21.7400
2023-05-19T00:46:00.875Z,21.7400
2023-05-19T00:47:03.218Z,21.7400
2023-05-19T00:48:05.336Z,21.7500
2023-05-19T00:49:07.549Z,21.7500
2023-05-19T00:50:09.800Z,21.7500
2023-05-19T00:51:09.940Z,21.7500
2023-05-19T00:52:12.240Z,21.7400
2023-05-19T00:53:14.495Z,21.7400
2023-05-19T00:54:16.776Z,21.7500
2023-05-19T00:55:19.018Z,21.7400
2023-05-19T00:56:21.265Z,21.7400
2023-05-19T00:57:23.598Z,21.7400
2023-05-19T00:58:25.752Z,21.7400
2023-05-19T00:59:25.931Z,21.7400
2023-05-19T01:00:28.255Z,21.7400
2023-05-19T01:01:30.502Z,21.7400
2023-05-19T01:02:32.845Z,21.7300
2023-05-19T01:03:35.371Z,21.7400
2023-05-19T01:04:37.322Z,21.7300
2023-05-19T01:05:39.617Z,21.7300
2023-05-19T01:06:41.940Z,21.7400
2023-05-19T01:07:42.127Z,21.7300
2023-05-19T01:08:44.358Z,21.7300
2023-05-19T01:09:46.648Z,21.7300
2023-05-19T01:10:48.847Z,21.7300
2023-05-19T01:11:51.141Z,21.7400
2023-05-19T01:12:53.431Z,21.7300
2023-05-19T01:13:55.619Z,21.7300
2023-05-19T01:14:55.710Z,21.7300
2023-05-19T01:17:02.476Z,21.6800
2023-05-19T01:18:04.576Z,21.6900
2023-05-19T01:19:06.721Z,21.7000
2023-05-19T01:20:08.865Z,21.7100
2023-05-19T01:21:11.050Z,21.7100
2023-05-19T01:22:13.435Z,21.7100
2023-05-19T01:23:15.467Z,21.7100
2023-05-19T01:24:17.681Z,21.7000
2023-05-19T01:25:19.932Z,21.7100
2023-05-19T01:26:22.172Z,21.7100
2023-05-19T01:27:22.240Z,21.7100
2023-05-19T01:28:24.482Z,21.7100
2023-05-19T01:29:26.679Z,21.7100
2023-05-19T01:30:28.935Z,21.7000
2023-05-19T01:31:31.144Z,21.7000
2023-05-19T01:32:33.397Z,21.7000
2023-05-19T01:33:35.612Z,21.7000
2023-05-19T01:34:37.795Z,21.7000
2023-05-19T01:35:40.017Z,21.7000
2023-05-19T01:36:42.249Z,21.7000
2023-05-19T01:37:44.416Z,21.7000
2023-05-19T01:38:46.666Z,21.6900
2023-05-19T01:39:48.848Z,21.6900
2023-05-19T01:40:51.071Z,21.6900
2023-05-19T01:41:51.147Z,21.6900
2023-05-19T01:42:54.280Z,21.6900
2023-05-19T01:43:55.522Z,21.6800
2023-05-19T01:44:57.662Z,21.6900
2023-05-19T01:45:59.910Z,21.7000
2023-05-19T01:47:01.983Z,21.7000
2023-05-19T01:48:04.240Z,21.6900
2023-05-19T01:49:06.390Z,21.6900
2023-05-19T01:50:08.551Z,21.6900
2023-05-19T01:51:10.750Z,21.6800
2023-05-19T01:52:12.952Z,21.6700
2023-05-19T01:53:15.136Z,21.6700
2023-05-19T01:54:17.404Z,21.6700
2023-05-19T01:55:19.590Z,21.6700
2023-05-19T01:56:21.801Z,21.6700
2023-05-19T01:57:24.018Z,21.6700
2023-05-19T01:58:26.228Z,21.6700
2023-05-19T01:59:28.469Z,21.6600
2023-05-19T02:00:30.881Z,21.6700
2023-05-19T02:01:32.910Z,21.6600
2023-05-19T02:02:32.932Z,21.6600
2023-05-19T02:03:35.129Z,21.6600
2023-05-19T02:04:37.362Z,21.6600
2023-05-19T02:05:39.528Z,21.6600
2023-05-19T02:06:41.755Z,21.6600
2023-05-19T02:07:44.027Z,21.6600
2023-05-19T02:08:46.188Z,21.6500
2023-05-19T02:09:48.460Z,21.6400
2023-05-19T02:10:50.635Z,21.6500
2023-05-19T02:11:52.854Z,21.6400
2023-05-19T02:12:55.074Z,21.6400
2023-05-19T02:13:57.304Z,21.6400
2023-05-19T02:14:59.572Z,21.6600
2023-05-19T02:15:59.657Z,21.6600
2023-05-19T02:17:01.883Z,21.6700
2023-05-19T02:18:04.142Z,21.6700
2023-05-19T02:19:06.375Z,21.6700
2023-05-19T02:20:09.092Z,21.6700
2023-05-19T02:21:10.782Z,21.6800
2023-05-19T02:22:13.012Z,21.6700
2023-05-19T02:23:15.236Z,21.6800
2023-05-19T02:24:17.460Z,21.6700
2023-05-19T02:25:19.709Z,21.6800
2023-05-19T02:26:21.917Z,21.6700
2023-05-19T02:27:21.999Z,21.6700
2023-05-19T02:28:24.246Z,21.6700
2023-05-19T02:29:26.483Z,21.6700
2023-05-19T02:30:28.721Z,21.6700
2023-05-19T02:31:30.924Z,21.6700
2023-05-19T02:32:33.353Z,21.6700
2023-05-19T02:33:35.354Z,21.6600
2023-05-19T02:34:37.619Z,21.6600
2023-05-19T02:35:39.877Z,21.6600
2023-05-19T02:36:42.119Z,21.6600
2023-05-19T02:37:44.385Z,21.6600
2023-05-19T02:38:44.504Z,21.6600
2023-05-19T02:40:23.360Z,21.6200
2023-05-19T02:41:24.458Z,21.6400
2023-05-19T02:42:25.606Z,21.6400
2023-05-19T02:43:27.773Z,21.6500
2023-05-19T02:44:30.023Z,21.6600
2023-05-19T02:45:32.237Z,21.6500
2023-05-19T02:46:34.577Z,21.6500
2023-05-19T02:47:37.286Z,21.6500
2023-05-19T02:48:36.789Z,21.6500
2023-05-19T02:49:38.975Z,21.6400
2023-05-19T02:50:41.202Z,21.6500
2023-05-19T02:51:43.435Z,21.6500
2023-05-19T02:52:45.668Z,21.6400
2023-05-19T02:53:47.882Z,21.6400
2023-05-19T02:54:50.130Z,21.6400
2023-05-19T02:55:52.390Z,21.6400
2023-05-19T02:56:54.701Z,21.6400
2023-05-19T02:57:56.888Z,21.6400
2023-05-19T02:58:59.094Z,21.6400
2023-05-19T02:59:59.163Z,21.6400
2023-05-19T03:01:01.358Z,21.6400
2023-05-19T03:02:03.692Z,21.6400
2023-05-19T03:03:05.919Z,21.6300
2023-05-19T03:04:08.056Z,21.6300
2023-05-19T03:05:10.201Z,21.6300
2023-05-19T03:06:12.412Z,21.6300
2023-05-19T03:07:14.636Z,21.6300
2023-05-19T03:08:16.838Z,21.6300
2023-05-19T03:09:19.047Z,21.6200
2023-05-19T03:10:21.264Z,21.6300
2023-05-19T03:11:23.504Z,21.6200
2023-05-19T03:12:25.735Z,21.6200
2023-05-19T03:13:27.923Z,21.6100
2023-05-19T03:14:27.985Z,21.6100
2023-05-19T03:15:30.211Z,21.6100
2023-05-19T03:16:32.469Z,21.6200
2023-05-19T03:17:34.749Z,21.6300
2023-05-19T03:18:36.840Z,21.6200
2023-05-19T03:19:38.963Z,21.6100
2023-05-19T03:20:41.803Z,21.6200
2023-05-19T03:21:43.308Z,21.6200
2023-05-19T03:22:45.550Z,21.6100
2023-05-19T03:23:47.744Z,21.6200
2023-05-19T03:24:49.974Z,21.6200
2023-05-19T03:25:52.226Z,21.6100
2023-05-19T03:26:54.424Z,21.6100
2023-05-19T03:27:56.671Z,21.6100
2023-05-19T03:28:58.837Z,21.6100
2023-05-19T03:30:01.063Z,21.6000
2023-05-19T03:31:03.248Z,21.6000
2023-05-19T03:32:03.376Z,21.6000
2023-05-19T03:33:05.741Z,21.6100
2023-05-19T03:34:07.850Z,21.6000
2023-05-19T03:35:09.996Z,21.6100
2023-05-19T03:36:12.184Z,21.6100
2023-05-19T03:37:14.375Z,21.6100
2023-05-19T03:38:16.617Z,21.6000
2023-05-19T03:39:18.743Z,21.6000
2023-05-19T03:40:20.936Z,21.6000
2023-05-19T03:41:23.121Z,21.6000
2023-05-19T03:42:25.344Z,21.6000
2023-05-19T03:43:27.550Z,21.6000
2023-05-19T03:44:29.714Z,21.6000
2023-05-19T03:45:31.981Z,21.6000
2023-05-19T03:46:34.045Z,21.6000
2023-05-19T03:47:36.219Z,21.6000
2023-05-19T03:48:36.302Z,21.5900
2023-05-19T03:49:38.709Z,21.5900
2023-05-19T03:50:40.751Z,21.6000
2023-05-19T03:51:42.951Z,21.5900
2023-05-19T03:52:45.165Z,21.5900
2023-05-19T03:53:47.386Z,21.5900
2023-05-19T03:54:49.584Z,21.5900
2023-05-19T03:55:51.833Z,21.6000
2023-05-19T03:56:54.022Z,21.5900
2023-05-19T03:57:56.284Z,21.5900
2023-05-19T03:58:58.455Z,21.5900
2023-05-19T04:00:00.637Z,21.5800
2023-05-19T04:01:02.840Z,21.5900
2023-05-19T04:02:05.126Z,21.5800
2023-05-19T04:03:05.184Z,21.5900
2023-05-19T04:04:07.334Z,21.5900
2023-05-19T04:05:09.446Z,21.5900
2023-05-19T04:06:11.627Z,21.5900
2023-05-19T04:07:13.816Z,21.6000
2023-05-19T04:08:16.018Z,21.6000
2023-05-19T04:09:18.351Z,21.6000
2023-05-19T04:10:20.448Z,21.5900
2023-05-19T04:11:22.646Z,21.6000
2023-05-19T04:12:24.857Z,21.6000
2023-05-19T04:13:27.077Z,21.5900
2023-05-19T04:14:29.306Z,21.6000
2023-05-19T04:15:31.508Z,21.6000
2023-05-19T04:16:33.694Z,21.6000
2023-05-19T04:17:35.958Z,21.5900
2023-05-19T04:18:38.153Z,21.5900
2023-05-19T04:19:40.368Z,21.5900
2023-05-19T04:20:40.425Z,21.6000
2023-05-19T04:21:42.624Z,21.6000
2023-05-19T04:22:44.816Z,21.6000
2023-05-19T04:23:46.933Z,21.6000
2023-05-19T04:24:49.139Z,21.6000
2023-05-19T04:25:51.324Z,21.6000
2023-05-19T04:26:53.506Z,21.6000
2023-05-19T04:27:55.679Z,21.6000
2023-05-19T04:28:57.780Z,21.6000
2023-05-19T04:29:59.958Z,21.6000
2023-05-19T04:31:02.198Z,21.5900
2023-05-19T04:32:04.362Z,21.6000
2023-05-19T04:33:06.606Z,21.6100
2023-05-19T04:34:08.749Z,21.6100
2023-05-19T04:35:10.878Z,21.6000
2023-05-19T04:36:13.029Z,21.6000
2023-05-19T04:37:15.204Z,21.6000
2023-05-19T04:38:17.398Z,21.6000
2023-05-19T04:39:19.561Z,21.6000
2023-05-19T04:40:21.798Z,21.6100
2023-05-19T04:41:23.972Z,21.6000
2023-05-19T04:42:26.230Z,21.6100
2023-05-19T04:43:28.339Z,21.6100
2023-05-19T04:44:30.541Z,21.6000
2023-05-19T04:45:30.626Z,21.6000
2023-05-19T04:46:32.906Z,21.6000
2023-05-19T04:47:35.114Z,21.6100
2023-05-19T04:48:37.275Z,21.6100
2023-05-19T04:49:39.586Z,21.6100
2023-05-19T04:50:41.734Z,21.6100
2023-05-19T04:51:43.924Z,21.6100
2023-05-19T04:52:46.125Z,21.6100
2023-05-19T04:53:48.339Z,21.6200
2023-05-19T04:54:50.573Z,21.6200
2023-05-19T04:55:52.840Z,21.6100
2023-05-19T04:56:54.989Z,21.6100
2023-05-19T04:57:57.197Z,21.6200
2023-05-19T04:58:57.310Z,21.6200
2023-05-19T04:59:59.536Z,21.6200
2023-05-19T05:01:01.821Z,21.6300
2023-05-19T05:02:04.061Z,21.6300
2023-05-19T05:03:06.320Z,21.6300
2023-05-19T05:04:08.583Z,21.6300
2023-05-19T05:05:10.713Z,21.6300
2023-05-19T05:06:12.912Z,21.6300
2023-05-19T05:07:15.153Z,21.6300
2023-05-19T05:08:17.331Z,21.6400
2023-05-19T05:09:19.550Z,21.6400
2023-05-19T05:10:21.758Z,21.6400
2023-05-19T05:11:24.012Z,21.6400
2023-05-19T05:12:24.038Z,21.6300
2023-05-19T05:13:26.269Z,21.6200
2023-05-19T05:14:28.481Z,21.6300
2023-05-19T05:15:30.738Z,21.6200
2023-05-19T05:16:32.948Z,21.6300
2023-05-19T05:17:35.181Z,21.6300
2023-05-19T05:18:37.319Z,21.6300
2023-05-19T05:19:39.524Z,21.6300
2023-05-19T05:20:41.746Z,21.6300
2023-05-19T05:21:43.973Z,21.6300
2023-05-19T05:22:46.170Z,21.6300
2023-05-19T05:23:48.353Z,21.6200
2023-05-19T05:24:50.491Z,21.6200
2023-05-19T05:25:52.699Z,21.6300
2023-05-19T05:26:54.961Z,21.6300
2023-05-19T05:29:16.629Z,21.6100
2023-05-19T05:30:18.743Z,21.6200
2023-05-19T05:31:20.918Z,21.6300
2023-05-19T05:32:23.197Z,21.6400
2023-05-19T05:33:25.472Z,21.6400
2023-05-19T05:34:27.525Z,21.6500
2023-05-19T05:35:29.851Z,21.6500
2023-05-19T05:36:31.993Z,21.6400
2023-05-19T05:37:34.245Z,21.6400
2023-05-19T05:38:34.330Z,21.6400
2023-05-19T05:39:36.552Z,21.6400
2023-05-19T05:40:38.792Z,21.6400
2023-05-19T05:41:41.031Z,21.6400
2023-05-19T05:42:43.305Z,21.6400
2023-05-19T05:43:45.520Z,21.6400
2023-05-19T05:44:47.795Z,21.6400
2023-05-19T05:45:50.069Z,21.6200
2023-05-19T05:46:52.315Z,21.6400
2023-05-19T05:47:54.635Z,21.6400
2023-05-19T05:48:56.827Z,21.6400
2023-05-19T05:49:59.081Z,21.6400
2023-05-19T05:50:59.214Z,21.6400
2023-05-19T05:52:06.401Z,21.6500
2023-05-19T05:53:03.657Z,21.6300
2023-05-19T05:54:05.879Z,21.6400
2023-05-19T05:55:08.128Z,21.6500
2023-05-19T05:56:10.355Z,21.6600
2023-05-19T05:57:12.600Z,21.6600
2023-05-19T05:58:14.864Z,21.6600
2023-05-19T05:59:17.091Z,21.6700
2023-05-19T06:00:19.283Z,21.6700
2023-05-19T06:01:21.470Z,21.6700
2023-05-19T06:02:23.792Z,21.6600
2023-05-19T06:03:23.858Z,21.6600
2023-05-19T06:04:26.048Z,21.6600
2023-05-19T06:05:28.302Z,21.6600
2023-05-19T06:06:30.425Z,21.6700
2023-05-19T06:07:32.545Z,21.6700
2023-05-19T06:08:34.747Z,21.6600
2023-05-19T06:09:36.948Z,21.6700
2023-05-19T06:10:39.159Z,21.6700
2023-05-19T06:11:41.321Z,21.6800
2023-05-19T06:12:43.533Z,21.6800
2023-05-19T06:13:45.763Z,21.6800
2023-05-19T06:14:47.897Z,21.6800
2023-05-19T06:15:50.118Z,21.6900
2023-05-19T06:16:52.276Z,21.6900
2023-05-19T06:17:54.540Z,21.6800
2023-05-19T06:18:56.646Z,21.6800
2023-05-19T06:19:58.714Z,21.6800
2023-05-19T06:20:58.720Z,21.6800
2023-05-19T06:22:00.801Z,21.7000
2023-05-19T06:23:02.946Z,21.7000
2023-05-19T06:24:05.168Z,21.7000
2023-05-19T06:25:07.339Z,21.7000
2023-05-19T06:26:09.466Z,21.7100
2023-05-19T06:27:11.633Z,21.7100
2023-05-19T06:28:13.793Z,21.7100
2023-05-19T06:29:16.023Z,21.7100
2023-05-19T06:30:18.149Z,21.7100
2023-05-19T06:31:20.343Z,21.7200
2023-05-19T06:32:22.505Z,21.7200
2023-05-19T06:33:26.691Z,21.7100
2023-05-19T06:34:26.793Z,21.7000
2023-05-19T06:35:28.946Z,21.7100
2023-05-19T06:36:31.144Z,21.7100
2023-05-19T06:37:33.279Z,21.7100
2023-05-19T06:38:35.505Z,21.7100
2023-05-19T06:39:37.809Z,21.7200
2023-05-19T06:40:39.941Z,21.7200
2023-05-19T06:41:42.041Z,21.7200
2023-05-19T06:42:44.177Z,21.7200
2023-05-19T06:43:46.363Z,21.7300
2023-05-19T06:44:48.566Z,21.7300
2023-05-19T06:45:48.544Z,21.7300
2023-05-19T06:46:50.743Z,21.7300
2023-05-19T06:47:52.945Z,21.7300
2023-05-19T06:48:55.040Z,21.7300
2023-05-19T06:49:57.195Z,21.7300
2023-05-19T06:50:59.282Z,21.7300
2023-05-19T06:52:01.471Z,21.7400
2023-05-19T06:53:03.655Z,21.7400
2023-05-19T06:54:05.763Z,21.7400
2023-05-19T06:55:07.942Z,21.7400
2023-05-19T06:56:10.090Z,21.7400
2023-05-19T06:57:12.231Z,21.7500
2023-05-19T06:58:14.377Z,21.7400
2023-05-19T06:59:16.491Z,21.7400
2023-05-19T07:00:32.032Z,21.7400
2023-05-19T07:01:20.838Z,21.7200
2023-05-19T07:02:23.012Z,21.7300
2023-05-19T07:03:25.310Z,21.7300
2023-05-19T07:04:27.468Z,21.7300
2023-05-19T07:05:29.651Z,21.7300
2023-05-19T07:06:31.841Z,21.7300
2023-05-19T07:07:34.028Z,21.7300
2023-05-19T07:08:34.120Z,21.7200
2023-05-19T07:09:36.365Z,21.7300
2023-05-19T07:10:38.621Z,21.7300
2023-05-19T07:11:40.864Z,21.7300
2023-05-19T07:12:43.039Z,21.7300
2023-05-19T07:13:45.270Z,21.7300
2023-05-19T07:14:47.467Z,21.7400
2023-05-19T07:15:49.896Z,21.7300
2023-05-19T07:16:52.060Z,21.7300
2023-05-19T07:17:54.202Z,21.7300
2023-05-19T07:18:56.405Z,21.7400
2023-05-19T07:19:58.574Z,21.7400
2023-05-19T07:20:58.721Z,21.7400
2023-05-19T07:23:17.371Z,21.7200
2023-05-19T07:24:18.273Z,21.7300
2023-05-19T07:25:19.313Z,21.7300
2023-05-19T07:26:20.522Z,21.7300
2023-05-19T07:27:22.732Z,21.7400
2023-05-19T07:28:24.858Z,21.7400
2023-05-19T07:29:27.007Z,21.7400
2023-05-19T07:30:29.165Z,21.7400
2023-05-19T07:31:31.524Z,21.7400
2023-05-19T07:32:33.737Z,21.7500
2023-05-19T07:33:35.783Z,21.7500
2023-05-19T07:34:37.994Z,21.7500
2023-05-19T07:35:40.203Z,21.7400
2023-05-19T07:36:42.541Z,21.7500
2023-05-19T07:37:44.639Z,21.7500
2023-05-19T07:38:46.874Z,21.7500
2023-05-19T07:39:49.075Z,21.7500
2023-05-19T07:40:49.139Z,21.7500
2023-05-19T07:41:51.507Z,21.7600
2023-05-19T07:42:53.603Z,21.7600
2023-05-19T07:43:55.830Z,21.7700
2023-05-19T07:44:58.028Z,21.7700
2023-05-19T07:46:00.286Z,21.7800
2023-05-19T07:47:02.565Z,21.7800
2023-05-19T07:48:04.803Z,21.7800
2023-05-19T07:49:06.965Z,21.7800
2023-05-19T07:50:09.205Z,21.7800
2023-05-19T07:51:11.439Z,21.7800
2023-05-19T07:52:13.665Z,21.7800
2023-05-19T07:53:15.794Z,21.7800
2023-05-19T07:54:15.814Z,21.7700
2023-05-19T07:55:18.017Z,21.7800
2023-05-19T07:56:20.212Z,21.7800
2023-05-19T07:57:22.560Z,21.7800
2023-05-19T07:58:24.579Z,21.7900
2023-05-19T07:59:26.714Z,21.7900
2023-05-19T08:00:28.917Z,21.7900
2023-05-19T08:01:31.126Z,21.7900
2023-05-19T08:02:33.445Z,21.7900
2023-05-19T08:03:35.693Z,21.7900
2023-05-19T08:04:37.771Z,21.7900
2023-05-19T08:05:39.969Z,21.7900
2023-05-19T08:06:42.197Z,21.7900
2023-05-19T08:07:44.548Z,21.7900
2023-05-19T08:08:46.687Z,21.8000
2023-05-19T08:09:46.772Z,21.8000
2023-05-19T08:10:49.036Z,21.8100
2023-05-19T08:11:51.282Z,21.8200
2023-05-19T08:12:53.591Z,21.8200
2023-05-19T08:13:55.831Z,21.8200
2023-05-19T08:15:00.363Z,21.8300
2023-05-19T08:16:00.380Z,21.8200
2023-05-19T08:17:02.557Z,21.8200
2023-05-19T08:18:04.840Z,21.8300
2023-05-19T08:19:04.933Z,21.8300
2023-05-19T08:20:07.166Z,21.8300
2023-05-19T08:21:09.418Z,21.8300
2023-05-19T08:22:11.626Z,21.8300
2023-05-19T08:23:13.898Z,21.8200
2023-05-19T08:24:16.119Z,21.8200
2023-05-19T08:25:18.374Z,21.8300
2023-05-19T08:26:20.629Z,21.8300
2023-05-19T08:27:22.879Z,21.8200
2023-05-19T08:28:25.188Z,21.8300
2023-05-19T08:29:27.417Z,21.8100
2023-05-19T08:30:29.640Z,21.7600
2023-05-19T08:31:31.935Z,21.7000
2023-05-19T08:32:34.090Z,21.6500
2023-05-19T08:33:36.387Z,21.6000
2023-05-19T08:34:38.499Z,21.5600
2023-05-19T08:35:40.737Z,21.5000
2023-05-19T08:36:42.964Z,21.4600
2023-05-19T08:37:45.198Z,21.4300
2023-05-19T08:38:47.380Z,21.4200
2023-05-19T08:39:47.379Z,21.4200
2023-05-19T08:40:49.605Z,21.4400
2023-05-19T08:41:51.818Z,21.4600
2023-05-19T08:42:54.004Z,21.4900
2023-05-19T08:43:56.359Z,21.5100
2023-05-19T08:44:58.501Z,21.5100
2023-05-19T08:46:00.660Z,21.4900
2023-05-19T08:47:03.083Z,21.4700
2023-05-19T08:48:05.294Z,21.4600
2023-05-19T08:49:07.510Z,21.4400
2023-05-19T08:50:09.630Z,21.4300
2023-05-19T08:51:11.871Z,21.4000
2023-05-19T08:52:14.126Z,21.3800
2023-05-19T08:53:28.965Z,21.3600
2023-05-19T08:54:16.504Z,21.3400
2023-05-19T08:55:18.736Z,21.3200
2023-05-19T08:56:20.961Z,21.2900
2023-05-19T08:57:23.230Z,21.2900
2023-05-19T08:58:26.805Z,21.2700
2023-05-19T08:59:25.610Z,21.2700
2023-05-19T09:00:27.863Z,21.2700
2023-05-19T09:01:27.996Z,21.2700
2023-05-19T09:02:30.178Z,21.2700
2023-05-19T09:03:32.475Z,21.2500
2023-05-19T09:04:34.703Z,21.2400
2023-05-19T09:05:36.980Z,21.2400
2023-05-19T09:06:38.972Z,21.2500
2023-05-19T09:07:41.202Z,21.2700
2023-05-19T09:08:43.435Z,21.3100
2023-05-19T09:09:45.680Z,21.3600
2023-05-19T09:10:47.846Z,21.4000
2023-05-19T09:11:50.046Z,21.4500
2023-05-19T09:12:52.235Z,21.5000
2023-05-19T09:13:54.479Z,21.5500
2023-05-19T09:14:54.600Z,21.5900
2023-05-19T09:15:56.818Z,21.6200
2023-05-19T09:16:59.057Z,21.6600
2023-05-19T09:18:01.309Z,21.7000
2023-05-19T09:19:03.490Z,21.7200
2023-05-19T09:20:05.734Z,21.7500
2023-05-19T09:21:07.893Z,21.7700
2023-05-19T09:22:10.095Z,21.7800
2023-05-19T09:23:12.298Z,21.7900
2023-05-19T09:24:14.511Z,21.8000
2023-05-19T09:25:16.739Z,21.8100
2023-05-19T09:26:18.930Z,21.8300
2023-05-19T09:27:21.093Z,21.8500
2023-05-19T09:28:23.287Z,21.8700
2023-05-19T09:29:25.502Z,21.8900
2023-05-19T09:30:25.587Z,21.9000
2023-05-19T09:31:27.819Z,21.9200
2023-05-19T09:32:30.128Z,21.9300
2023-05-19T09:33:32.107Z,21.9400
2023-05-19T09:34:34.336Z,21.9600
2023-05-19T09:35:36.501Z,21.9800
2023-05-19T09:36:38.684Z,21.9900
2023-05-19T09:37:40.885Z,22.0000
2023-05-19T09:38:43.119Z,22.0100
2023-05-19T09:39:45.311Z,22.0200
2023-05-19T09:40:47.562Z,22.0300
2023-05-19T09:41:49.739Z,22.0500
2023-05-19T09:42:51.949Z,22.0600
2023-05-19T09:43:54.154Z,22.0600
2023-05-19T09:44:56.376Z,22.0600
2023-05-19T09:45:58.679Z,22.0700
2023-05-19T09:46:58.868Z,22.0800
2023-05-19T09:48:01.010Z,22.1000
2023-05-19T09:49:03.233Z,22.1000
2023-05-19T09:50:05.496Z,22.1100
2023-05-19T09:51:07.964Z,22.1200
2023-05-19T09:52:11.154Z,22.1200
2023-05-19T09:53:12.296Z,22.1200
2023-05-19T09:54:14.521Z,22.1400
2023-05-19T09:55:16.770Z,22.1400
2023-05-19T09:56:16.853Z,22.1500
2023-05-19T09:57:19.082Z,22.1600
2023-05-19T09:58:21.242Z,22.1600
2023-05-19T09:59:23.447Z,22.1700
2023-05-19T10:00:25.667Z,22.1900
2023-05-19T10:01:27.924Z,22.2000
2023-05-19T10:02:30.106Z,22.2000
2023-05-19T10:03:32.292Z,22.2000
2023-05-19T10:04:34.499Z,22.2200
2023-05-19T10:05:36.703Z,22.2300
2023-05-19T10:06:38.986Z,22.2300
2023-05-19T10:07:41.234Z,22.2200
2023-05-19T10:08:43.454Z,22.2100
2023-05-19T10:09:43.573Z,22.2100
2023-05-19T10:10:45.796Z,22.2000
2023-05-19T10:11:48.087Z,22.1700
2023-05-19T10:12:50.309Z,22.1400
2023-05-19T10:13:52.577Z,22.1300
2023-05-19T10:14:54.858Z,22.1300
2023-05-19T10:15:59.380Z,22.1000
2023-05-19T10:16:59.452Z,22.0800
2023-05-19T10:18:01.556Z,22.0800
2023-05-19T10:20:37.165Z,22.0300
2023-05-19T10:21:39.321Z,22.0400
2023-05-19T10:22:41.469Z,22.0500
2023-05-19T10:23:41.500Z,22.0500
2023-05-19T10:24:43.698Z,22.0600
2023-05-19T10:25:45.888Z,22.0700
2023-05-19T10:26:48.091Z,22.0700
2023-05-19T10:27:50.283Z,22.0800
2023-05-19T10:28:52.479Z,22.0700
2023-05-19T10:29:54.647Z,22.0900
2023-05-19T10:30:56.838Z,22.0800
2023-05-19T10:31:59.014Z,22.0800
2023-05-19T10:33:01.233Z,22.0900
2023-05-19T10:34:03.423Z,22.0800
2023-05-19T10:35:05.465Z,22.0900
2023-05-19T10:36:07.634Z,22.1000
2023-05-19T10:37:09.824Z,22.1100
2023-05-19T10:38:12.001Z,22.1300
2023-05-19T10:39:14.146Z,22.1400
2023-05-19T10:40:16.299Z,22.1500
2023-05-19T10:41:18.483Z,22.1600
2023-05-19T10:42:20.649Z,22.1500
2023-05-19T10:43:22.839Z,22.1700
2023-05-19T10:44:24.994Z,22.1800
2023-05-19T10:45:27.221Z,22.1700
2023-05-19T10:46:29.494Z,22.1900
2023-05-19T10:47:31.688Z,22.1900
2023-05-19T10:48:31.747Z,22.2100
2023-05-19T10:49:34.002Z,22.2100
2023-05-19T10:50:36.189Z,22.2300
2023-05-19T10:51:38.444Z,22.2300
2023-05-19T10:52:40.589Z,22.2400
2023-05-19T10:53:42.868Z,22.2400
2023-05-19T10:54:45.038Z,22.2400
2023-05-19T10:55:47.278Z,22.2400
2023-05-19T10:56:49.508Z,22.2300
2023-05-19T10:57:51.742Z,22.2400
2023-05-19T10:58:54.014Z,22.2400
2023-05-19T10:59:56.226Z,22.2300
2023-05-19T11:00:58.457Z,22.2300
2023-05-19T11:02:00.758Z,22.2400
2023-05-19T11:03:02.946Z,22.2500
2023-05-19T11:04:05.142Z,22.2500
2023-05-19T11:05:07.362Z,22.2600
2023-05-19T11:06:09.497Z,22.2700
2023-05-19T11:07:11.714Z,22.2700
2023-05-19T11:08:13.980Z,22.2700
2023-05-19T11:09:16.240Z,22.2700
2023-05-19T11:10:18.413Z,22.2800
2023-05-19T11:11:20.605Z,22.2800
2023-05-19T11:12:20.696Z,22.2900
2023-05-19T11:13:23.292Z,22.3000
2023-05-19T11:14:25.197Z,22.3000
2023-05-19T11:15:27.385Z,22.3100
2023-05-19T11:16:29.670Z,22.3200
2023-05-19T11:17:33.118Z,22.3400
2023-05-19T11:18:34.038Z,22.3700
2023-05-19T11:19:36.289Z,22.3800
2023-05-19T11:20:38.763Z,22.3900
2023-05-19T11:21:40.762Z,22.3900
2023-05-19T11:22:43.037Z,22.3900
2023-05-19T11:23:45.238Z,22.4000
2023-05-19T11:24:45.291Z,22.4100
2023-05-19T11:25:47.434Z,22.4200
2023-05-19T11:26:49.647Z,22.4300
2023-05-19T11:27:51.832Z,22.4300
2023-05-19T11:28:53.998Z,22.4400
2023-05-19T11:29:56.180Z,22.4500
2023-05-19T11:30:58.418Z,22.4600
2023-05-19T11:32:00.661Z,22.4700
2023-05-19T11:33:02.840Z,22.4900
2023-05-19T11:34:04.994Z,22.5000
2023-05-19T11:35:07.161Z,22.5200
2023-05-19T11:36:09.303Z,22.5200
2023-05-19T11:37:11.409Z,22.5200
2023-05-19T11:38:13.566Z,22.5300
2023-05-19T11:39:15.736Z,22.5400
2023-05-19T11:40:17.916Z,22.5600
2023-05-19T11:41:20.871Z,22.5700
2023-05-19T11:42:22.273Z,22.5700
2023-05-19T11:43:24.483Z,22.5800
2023-05-19T11:44:26.654Z,22.5800
2023-05-19T11:45:28.894Z,22.5800
2023-05-19T11:46:31.059Z,22.5900
2023-05-19T11:47:42.584Z,22.6000
2023-05-19T11:48:35.341Z,22.5900
2023-05-19T11:49:37.478Z,22.6000
2023-05-19T11:50:39.728Z,22.6100
2023-05-19T11:51:41.764Z,22.6200
2023-05-19T11:52:41.655Z,22.6300
2023-05-19T11:53:43.754Z,22.6400
2023-05-19T11:54:45.852Z,22.6500
2023-05-19T11:55:48.375Z,22.6600
2023-05-19T11:56:50.132Z,22.6500
2023-05-19T11:58:02.779Z,22.6700
2023-05-19T11:58:54.453Z,22.6600
2023-05-19T11:59:56.607Z,22.6900
2023-05-19T12:00:58.872Z,22.6900
2023-05-19T12:02:00.929Z,22.6900
2023-05-19T12:03:03.195Z,22.7100
2023-05-19T12:04:05.359Z,22.7100
2023-05-19T12:05:07.377Z,22.7300
2023-05-19T12:06:07.424Z,22.7200
2023-05-19T12:07:09.496Z,22.7100
2023-05-19T12:08:11.652Z,22.7100
2023-05-19T12:09:11.569Z,22.7000
2023-05-19T12:10:13.644Z,22.6900
2023-05-19T12:11:16.997Z,22.6800
2023-05-19T12:12:17.808Z,22.6600
2023-05-19T12:13:19.926Z,22.6600
2023-05-19T12:14:22.081Z,22.6500
2023-05-19T12:15:24.256Z,22.6600
2023-05-19T12:16:26.524Z,22.6600
2023-05-19T12:17:28.719Z,22.6600
2023-05-19T12:18:30.846Z,22.6600
2023-05-19T12:19:33.102Z,22.6600
2023-05-19T12:20:35.266Z,22.6600
2023-05-19T12:21:37.413Z,22.6600
2023-05-19T12:22:39.676Z,22.6700
2023-05-19T12:23:41.803Z,22.6700
2023-05-19T12:24:44.020Z,22.6800
2023-05-19T12:25:46.157Z,22.6900
2023-05-19T12:26:48.424Z,22.7000
2023-05-19T12:27:48.443Z,22.7100
2023-05-19T12:30:07.997Z,22.6900
2023-05-19T12:31:09.067Z,22.7000
2023-05-19T12:32:10.289Z,22.7100
2023-05-19T12:33:12.280Z,22.7200
2023-05-19T12:34:14.383Z,22.7200
2023-05-19T12:35:16.513Z,22.7300
2023-05-19T12:36:18.678Z,22.7300
2023-05-19T12:37:20.876Z,22.7300